createdAt,value
2022-07-26T00:00:13.428Z,17.24
2022-07-26T00:02:47.435Z,17.21
2022-07-26T00:05:19.595Z,17.16
2022-07-26T00:07:49.125Z,17.12
2022-07-26T00:10:18.401Z,17.04
2022-07-26T00:12:47.627Z,17.10
2022-07-26T00:15:17.071Z,17.05
2022-07-26T00:17:46.328Z,16.99
2022-07-26T00:20:15.572Z,16.99
2022-07-26T00:22:46.519Z,16.93
2022-07-26T00:25:15.894Z,17.06
2022-07-26T00:27:45.179Z,17.15
2022-07-26T00:30:15.525Z,16.93
2022-07-26T00:32:44.921Z,17.06
2022-07-26T00:35:14.770Z,17.14
2022-07-26T00:37:45.722Z,17.13
2022-07-26T00:40:16.450Z,17.12
2022-07-26T00:42:46.025Z,17.10
2022-07-26T00:45:16.337Z,17.02
2022-07-26T00:47:46.885Z,17.11
2022-07-26T00:50:18.736Z,17.04
2022-07-26T00:52:51.808Z,17.13
2022-07-26T00:55:21.965Z,17.08
2022-07-26T00:57:51.815Z,17.18
2022-07-26T01:00:26.573Z,17.16
2022-07-26T01:02:56.301Z,17.17
2022-07-26T01:05:26.518Z,17.20
2022-07-26T01:07:57.681Z,17.15
2022-07-26T01:10:27.292Z,17.08
2022-07-26T01:12:56.453Z,17.09
2022-07-26T01:15:25.604Z,17.10
2022-07-26T01:17:54.882Z,17.03
2022-07-26T01:20:24.073Z,16.88
2022-07-26T01:22:54.682Z,16.90
2022-07-26T01:25:31.675Z,16.82
2022-07-26T01:28:00.942Z,16.77
2022-07-26T01:30:30.289Z,16.78
2022-07-26T01:32:59.781Z,16.77
2022-07-26T01:35:29.494Z,16.69
2022-07-26T01:38:00.037Z,16.79
2022-07-26T01:40:29.355Z,16.76
2022-07-26T01:42:58.466Z,16.77
2022-07-26T01:45:27.978Z,16.75
2022-07-26T01:47:57.516Z,16.76
2022-07-26T01:50:26.802Z,16.72
2022-07-26T01:52:56.390Z,16.71
2022-07-26T01:55:26.948Z,16.77
2022-07-26T01:57:56.446Z,16.69
2022-07-26T02:00:25.792Z,16.66
2022-07-26T02:02:55.481Z,16.77
2022-07-26T02:05:24.920Z,16.82
2022-07-26T02:07:54.124Z,16.76
2022-07-26T02:10:46.449Z,16.76
2022-07-26T02:13:16.729Z,16.80
2022-07-26T02:15:46.000Z,16.67
2022-07-26T02:18:15.372Z,16.63
2022-07-26T02:20:44.567Z,16.56
2022-07-26T02:23:14.444Z,16.52
2022-07-26T02:25:45.199Z,16.32
2022-07-26T02:28:14.411Z,16.46
2022-07-26T02:30:44.340Z,16.41
2022-07-26T02:33:28.948Z,16.39
2022-07-26T02:46:25.431Z,16.45
2022-07-26T02:48:54.815Z,16.30
2022-07-26T02:51:24.298Z,16.49
2022-07-26T02:53:54.038Z,16.53
2022-07-26T02:56:23.285Z,16.54
2022-07-26T02:58:52.668Z,16.54
2022-07-26T03:01:22.007Z,16.53
2022-07-26T03:03:52.911Z,16.53
2022-07-26T03:06:22.318Z,16.44
2022-07-26T03:08:52.034Z,16.52
2022-07-26T03:11:21.260Z,16.53
2022-07-26T03:13:50.396Z,16.52
2022-07-26T03:16:22.749Z,16.55
2022-07-26T03:18:55.609Z,16.50
2022-07-26T03:21:24.951Z,16.49
2022-07-26T03:23:54.102Z,16.41
2022-07-26T03:26:23.431Z,16.43
2022-07-26T03:28:52.983Z,16.47
2022-07-26T03:31:23.613Z,16.45
2022-07-26T03:33:55.240Z,16.31
2022-07-26T03:36:27.045Z,16.35
2022-07-26T03:38:56.556Z,16.40
2022-07-26T03:41:25.733Z,16.45
2022-07-26T03:43:55.112Z,16.37
2022-07-26T03:46:24.519Z,16.33
2022-07-26T03:48:55.169Z,16.38
2022-07-26T03:51:24.910Z,16.38
2022-07-26T03:53:54.475Z,16.36
2022-07-26T03:56:34.443Z,16.31
2022-07-26T03:59:07.267Z,16.15
2022-07-26T04:01:37.353Z,16.20
2022-07-26T04:04:09.095Z,16.29
2022-07-26T04:06:38.889Z,16.25
2022-07-26T04:09:09.097Z,16.25
2022-07-26T04:11:38.538Z,16.16
2022-07-26T04:14:08.150Z,16.29
2022-07-26T04:16:42.902Z,16.27
2022-07-26T04:19:14.628Z,16.23
2022-07-26T04:21:43.821Z,16.25
2022-07-26T04:24:12.936Z,16.28
2022-07-26T04:26:42.191Z,16.00
2022-07-26T04:29:12.882Z,16.22
2022-07-26T04:31:42.086Z,16.25
2022-07-26T04:34:11.570Z,16.22
2022-07-26T04:36:42.405Z,16.16
2022-07-26T04:39:12.061Z,16.14
2022-07-26T04:41:41.213Z,15.95
2022-07-26T04:44:10.716Z,16.06
2022-07-26T04:46:40.361Z,15.94
2022-07-26T04:49:14.971Z,16.01
2022-07-26T04:51:47.023Z,15.90
2022-07-26T04:54:20.769Z,15.97
2022-07-26T04:56:50.228Z,15.97
2022-07-26T04:59:21.891Z,15.99
2022-07-26T05:01:51.493Z,15.98
2022-07-26T05:04:20.795Z,15.93
2022-07-26T05:06:51.614Z,16.02
2022-07-26T05:09:24.423Z,15.99
2022-07-26T05:11:53.519Z,16.04
2022-07-26T05:14:25.292Z,15.99
2022-07-26T05:16:57.289Z,15.94
2022-07-26T05:19:26.577Z,15.92
2022-07-26T05:21:57.296Z,15.86
2022-07-26T05:24:26.767Z,15.74
2022-07-26T05:26:58.995Z,15.85
2022-07-26T05:29:31.061Z,15.85
2022-07-26T05:32:00.430Z,15.89
2022-07-26T05:34:29.802Z,15.89
2022-07-26T05:37:00.488Z,15.72
2022-07-26T05:39:29.823Z,15.75
2022-07-26T05:41:58.927Z,15.75
2022-07-26T05:44:30.906Z,15.84
2022-07-26T05:47:00.238Z,15.88
2022-07-26T05:49:40.348Z,15.92
2022-07-26T05:52:11.384Z,15.90
2022-07-26T05:54:40.959Z,15.90
2022-07-26T05:57:10.170Z,15.93
2022-07-26T05:59:39.376Z,15.90
2022-07-26T06:02:09.187Z,15.91
2022-07-26T06:04:38.476Z,15.95
2022-07-26T06:07:08.079Z,15.97
2022-07-26T06:09:38.768Z,16.05
2022-07-26T06:12:08.623Z,16.11
2022-07-26T06:14:37.940Z,15.93
2022-07-26T06:17:07.297Z,16.11
2022-07-26T06:19:36.809Z,16.15
2022-07-26T06:22:06.143Z,16.12
2022-07-26T06:24:35.410Z,16.13
2022-07-26T06:27:06.216Z,16.10
2022-07-26T06:29:35.644Z,16.29
2022-07-26T06:32:05.117Z,16.29
2022-07-26T06:34:34.500Z,16.32
2022-07-26T06:37:04.535Z,16.30
2022-07-26T06:39:33.808Z,16.33
2022-07-26T06:42:03.002Z,16.44
2022-07-26T06:44:33.630Z,16.51
2022-07-26T06:47:02.936Z,16.46
2022-07-26T06:49:32.331Z,16.55
2022-07-26T06:52:01.645Z,16.36
2022-07-26T06:54:30.834Z,16.47
2022-07-26T06:57:00.829Z,16.47
2022-07-26T06:59:30.153Z,16.41
2022-07-26T07:02:01.865Z,16.50
2022-07-26T07:04:32.394Z,16.63
2022-07-26T07:07:06.089Z,16.64
2022-07-26T07:09:36.586Z,16.72
2022-07-26T07:12:09.768Z,16.86
2022-07-26T07:14:40.500Z,16.91
2022-07-26T07:17:15.956Z,16.99
2022-07-26T07:19:47.847Z,17.01
2022-07-26T07:22:17.263Z,16.90
2022-07-26T07:24:46.700Z,16.97
2022-07-26T07:27:17.835Z,17.07
2022-07-26T07:29:47.023Z,17.03
2022-07-26T07:32:19.741Z,16.97
2022-07-26T07:34:49.901Z,17.12
2022-07-26T07:37:20.434Z,17.11
2022-07-26T07:39:50.617Z,17.33
2022-07-26T07:42:20.695Z,17.33
2022-07-26T07:44:50.313Z,17.59
2022-07-26T07:47:22.346Z,17.66
2022-07-26T07:49:51.886Z,17.74
2022-07-26T07:52:21.102Z,17.86
2022-07-26T07:54:50.636Z,17.81
2022-07-26T07:57:20.666Z,17.78
2022-07-26T07:59:53.640Z,18.00
2022-07-26T08:02:24.489Z,17.95
2022-07-26T08:04:54.347Z,18.04
2022-07-26T08:07:23.840Z,18.10
2022-07-26T08:10:03.539Z,18.30
2022-07-26T08:12:32.880Z,18.48
2022-07-26T08:15:02.537Z,18.47
2022-07-26T08:17:41.780Z,18.41
2022-07-26T08:20:15.805Z,18.70
2022-07-26T08:22:45.310Z,18.68
2022-07-26T08:25:14.623Z,18.53
2022-07-26T08:27:55.090Z,18.75
2022-07-26T08:30:32.259Z,18.91
2022-07-26T08:33:03.028Z,18.92
2022-07-26T08:35:32.345Z,18.95
2022-07-26T08:38:02.060Z,19.23
2022-07-26T08:40:31.436Z,19.39
2022-07-26T08:43:01.961Z,19.53
2022-07-26T08:45:33.119Z,19.62
2022-07-26T08:48:19.197Z,19.66
2022-07-26T08:50:49.283Z,19.66
2022-07-26T08:53:18.544Z,19.83
2022-07-26T08:56:06.413Z,19.70
2022-07-26T08:58:37.867Z,19.97
2022-07-26T09:01:09.950Z,20.00
2022-07-26T09:03:41.474Z,20.22
2022-07-26T09:06:17.475Z,20.07
2022-07-26T09:08:49.002Z,20.20
2022-07-26T09:11:30.128Z,20.07
2022-07-26T09:14:02.574Z,19.84
2022-07-26T09:16:37.251Z,19.85
2022-07-26T09:19:22.888Z,20.03
2022-07-26T09:21:53.297Z,20.02
2022-07-26T09:24:36.766Z,19.91
2022-07-26T09:27:09.424Z,19.82
2022-07-26T09:29:48.095Z,19.58
2022-07-26T09:32:19.913Z,19.23
2022-07-26T09:34:57.763Z,19.25
2022-07-26T09:37:39.060Z,19.17
2022-07-26T09:40:11.217Z,19.15
2022-07-26T09:42:54.569Z,19.15
2022-07-26T09:45:24.280Z,19.24
2022-07-26T09:47:54.127Z,19.29
2022-07-26T09:50:27.961Z,19.30
2022-07-26T09:53:10.715Z,19.29
2022-07-26T09:55:57.509Z,19.21
2022-07-26T09:58:28.425Z,19.42
2022-07-26T10:01:02.311Z,19.64
2022-07-26T10:03:32.606Z,19.94
2022-07-26T10:06:05.105Z,19.93
2022-07-26T10:08:34.294Z,20.31
2022-07-26T10:11:08.408Z,20.20
2022-07-26T10:13:38.874Z,20.36
2022-07-26T10:16:28.739Z,20.43
2022-07-26T10:18:59.253Z,20.29
2022-07-26T10:21:31.872Z,20.28
2022-07-26T10:24:02.710Z,20.15
2022-07-26T10:26:45.754Z,20.24
2022-07-26T10:29:31.516Z,20.25
2022-07-26T10:32:21.458Z,20.29
2022-07-26T10:34:50.921Z,20.38
2022-07-26T10:37:30.627Z,20.38
2022-07-26T10:40:22.774Z,20.51
2022-07-26T10:42:52.494Z,20.55
2022-07-26T10:45:24.437Z,20.80
2022-07-26T10:48:16.676Z,20.95
2022-07-26T10:50:48.533Z,20.87
2022-07-26T10:53:24.558Z,20.80
2022-07-26T10:55:55.822Z,20.73
2022-07-26T10:58:28.944Z,20.58
2022-07-26T11:01:01.481Z,20.39
2022-07-26T11:03:42.266Z,20.35
2022-07-26T11:06:14.227Z,20.42
2022-07-26T11:08:48.702Z,20.54
2022-07-26T11:11:31.044Z,20.70
2022-07-26T11:14:09.109Z,20.89
2022-07-26T11:16:41.208Z,21.13
2022-07-26T11:19:19.029Z,21.33
2022-07-26T11:21:56.245Z,21.37
2022-07-26T11:24:27.492Z,21.33
2022-07-26T11:26:56.833Z,21.42
2022-07-26T11:29:38.463Z,21.32
2022-07-26T11:32:19.218Z,21.17
2022-07-26T11:34:58.542Z,21.27
2022-07-26T11:37:28.210Z,21.64
2022-07-26T11:39:58.912Z,22.51
2022-07-26T11:42:28.351Z,23.44
2022-07-26T11:44:57.547Z,23.86
2022-07-26T11:47:26.984Z,23.91
2022-07-26T11:52:46.000Z,23.29
2022-07-26T11:55:16.757Z,22.83
2022-07-26T11:57:46.113Z,22.83
2022-07-26T12:00:18.328Z,22.70
2022-07-26T12:02:50.345Z,22.64
2022-07-26T12:05:25.716Z,22.62
2022-07-26T12:07:58.084Z,22.25
2022-07-26T12:10:29.600Z,22.17
2022-07-26T12:13:10.093Z,21.89
2022-07-26T12:15:47.767Z,21.67
2022-07-26T12:18:25.725Z,21.47
2022-07-26T12:21:06.715Z,21.31
2022-07-26T12:23:45.252Z,21.04
2022-07-26T12:26:27.906Z,21.23
2022-07-26T12:28:58.381Z,21.10
2022-07-26T12:31:30.178Z,21.32
2022-07-26T12:34:00.318Z,21.48
2022-07-26T12:36:30.484Z,21.80
2022-07-26T12:39:01.332Z,21.94
2022-07-26T12:41:41.042Z,22.23
2022-07-26T12:44:12.617Z,22.34
2022-07-26T12:46:44.992Z,22.62
2022-07-26T12:49:14.805Z,22.73
2022-07-26T12:51:44.924Z,22.54
2022-07-26T12:54:14.751Z,22.32
2022-07-26T12:56:46.367Z,22.23
2022-07-26T12:59:18.124Z,22.20
2022-07-26T13:01:47.540Z,21.93
2022-07-26T13:04:17.398Z,21.85
2022-07-26T13:06:46.837Z,21.88
2022-07-26T13:09:17.186Z,21.82
2022-07-26T13:11:48.269Z,21.72
2022-07-26T13:14:17.594Z,21.93
2022-07-26T13:16:46.904Z,21.82
2022-07-26T13:19:16.696Z,22.01
2022-07-26T13:21:52.294Z,22.28
2022-07-26T13:24:22.504Z,22.48
2022-07-26T13:26:53.743Z,22.83
2022-07-26T13:29:23.539Z,23.32
2022-07-26T13:31:53.921Z,23.65
2022-07-26T13:34:24.255Z,23.61
2022-07-26T13:36:53.853Z,23.44
2022-07-26T13:39:23.120Z,23.43
2022-07-26T13:41:54.433Z,23.71
2022-07-26T13:44:24.289Z,23.57
2022-07-26T13:46:53.745Z,23.47
2022-07-26T13:49:23.119Z,23.41
2022-07-26T13:51:58.610Z,23.28
2022-07-26T13:54:31.349Z,23.15
2022-07-26T13:57:05.355Z,23.41
2022-07-26T13:59:35.081Z,23.51
2022-07-26T14:02:05.754Z,23.44
2022-07-26T14:04:36.147Z,23.79
2022-07-26T14:07:05.397Z,24.18
2022-07-26T14:09:34.847Z,24.38
2022-07-26T14:12:06.440Z,24.34
2022-07-26T14:14:37.938Z,24.24
2022-07-26T14:17:07.289Z,24.18
2022-07-26T14:19:37.081Z,24.24
2022-07-26T14:22:06.421Z,24.52
2022-07-26T14:24:35.818Z,24.42
2022-07-26T14:27:06.623Z,24.24
2022-07-26T14:29:35.895Z,24.09
2022-07-26T14:32:05.668Z,24.05
2022-07-26T14:34:34.933Z,23.95
2022-07-26T14:37:09.923Z,23.92
2022-07-26T14:39:53.502Z,23.93
2022-07-26T14:42:25.265Z,23.93
2022-07-26T14:44:54.617Z,23.60
2022-07-26T14:47:23.898Z,23.49
2022-07-26T14:49:53.270Z,23.55
2022-07-26T14:52:22.687Z,23.51
2022-07-26T14:54:51.971Z,23.47
2022-07-26T14:57:21.290Z,23.45
2022-07-26T14:59:52.017Z,23.59
2022-07-26T15:02:21.659Z,23.79
2022-07-26T15:04:51.279Z,23.99
2022-07-26T15:07:20.611Z,24.27
2022-07-26T15:09:49.918Z,24.63
2022-07-26T15:12:19.324Z,24.68
2022-07-26T15:14:48.563Z,24.38
2022-07-26T15:17:19.665Z,24.40
2022-07-26T15:19:49.390Z,24.58
2022-07-26T15:22:18.891Z,24.88
2022-07-26T15:24:48.139Z,25.28
2022-07-26T15:27:17.479Z,25.38
2022-07-26T15:29:48.670Z,25.64
2022-07-26T15:32:20.995Z,25.88
2022-07-26T15:34:50.097Z,26.35
2022-07-26T15:37:19.941Z,26.71
2022-07-26T15:39:49.255Z,27.08
2022-07-26T15:42:22.057Z,27.32
2022-07-26T15:44:52.785Z,27.17
2022-07-26T15:47:52.495Z,27.04
2022-07-26T15:50:15.937Z,26.89
2022-07-26T15:52:48.580Z,26.43
2022-07-26T15:55:19.585Z,25.83
2022-07-26T15:57:48.816Z,25.39
2022-07-26T16:00:19.112Z,24.96
2022-07-26T16:02:50.334Z,24.38
2022-07-26T16:05:20.103Z,24.03
2022-07-26T16:07:49.500Z,24.08
2022-07-26T16:10:19.688Z,24.10
2022-07-26T16:12:48.909Z,24.21
2022-07-26T16:15:18.113Z,24.22
2022-07-26T16:17:48.780Z,24.16
2022-07-26T16:20:19.596Z,23.99
2022-07-26T16:22:49.156Z,23.78
2022-07-26T16:25:18.628Z,23.60
2022-07-26T16:27:47.896Z,23.37
2022-07-26T16:30:17.886Z,23.20
2022-07-26T16:32:48.791Z,23.26
2022-07-26T16:35:18.574Z,23.28
2022-07-26T16:37:49.587Z,23.15
2022-07-26T16:40:19.084Z,23.01
2022-07-26T16:42:48.398Z,22.82
2022-07-26T16:45:17.736Z,22.69
2022-07-26T16:47:48.439Z,22.77
2022-07-26T16:50:27.397Z,22.92
2022-07-26T16:52:57.460Z,22.83
2022-07-26T16:55:26.977Z,22.85
2022-07-26T16:57:56.348Z,23.02
2022-07-26T17:00:25.716Z,23.07
2022-07-26T17:02:56.753Z,22.74
2022-07-26T17:05:26.400Z,22.88
2022-07-26T17:07:55.760Z,22.68
2022-07-26T17:10:28.164Z,22.71
2022-07-26T17:12:57.505Z,22.66
2022-07-26T17:15:26.964Z,22.56
2022-07-26T17:17:57.621Z,22.65
2022-07-26T17:20:27.458Z,22.49
2022-07-26T17:22:57.154Z,22.55
2022-07-26T17:25:26.633Z,22.53
2022-07-26T17:27:55.843Z,22.58
2022-07-26T17:30:25.552Z,22.70
2022-07-26T17:32:56.264Z,22.78
2022-07-26T17:35:25.779Z,22.81
2022-07-26T17:37:56.516Z,22.65
2022-07-26T17:40:26.057Z,22.61
2022-07-26T17:42:56.487Z,22.53
2022-07-26T17:45:25.647Z,22.48
2022-07-26T17:47:56.568Z,22.41
2022-07-26T17:50:36.431Z,22.41
2022-07-26T17:53:07.287Z,22.46
2022-07-26T17:55:36.598Z,22.53
2022-07-26T17:58:05.747Z,22.61
2022-07-26T18:00:35.087Z,22.66
2022-07-26T18:03:06.050Z,22.51
2022-07-26T18:05:39.605Z,22.49
2022-07-26T18:08:10.649Z,22.31
2022-07-26T18:10:40.295Z,22.29
2022-07-26T18:13:10.271Z,22.25
2022-07-26T18:15:39.787Z,22.24
2022-07-26T18:18:11.345Z,22.13
2022-07-26T18:20:40.764Z,21.97
2022-07-26T18:23:10.016Z,21.84
2022-07-26T18:25:39.517Z,21.82
2022-07-26T18:28:09.697Z,21.84
2022-07-26T18:30:39.276Z,21.73
2022-07-26T18:33:12.033Z,21.74
2022-07-26T18:35:41.492Z,21.55
2022-07-26T18:38:12.092Z,21.52
2022-07-26T18:40:41.459Z,21.34
2022-07-26T18:43:11.042Z,21.32
2022-07-26T18:45:40.524Z,21.16
2022-07-26T18:48:11.486Z,21.12
2022-07-26T18:50:41.155Z,21.16
2022-07-26T18:53:12.762Z,21.07
2022-07-26T18:55:42.018Z,21.12
2022-07-26T18:58:11.593Z,21.26
2022-07-26T19:00:41.159Z,21.25
2022-07-26T19:03:11.822Z,21.16
2022-07-26T19:05:41.528Z,21.18
2022-07-26T19:08:10.906Z,21.16
2022-07-26T19:10:40.104Z,21.10
2022-07-26T19:13:09.483Z,21.08
2022-07-26T19:15:38.774Z,21.04
2022-07-26T19:18:16.210Z,20.87
2022-07-26T19:20:45.895Z,20.90
2022-07-26T19:23:15.326Z,20.80
2022-07-26T19:25:44.697Z,20.79
2022-07-26T19:28:16.424Z,20.66
2022-07-26T19:30:46.264Z,20.68
2022-07-26T19:33:17.041Z,20.70
2022-07-26T19:35:46.414Z,20.79
2022-07-26T19:38:15.578Z,20.74
2022-07-26T19:40:45.601Z,20.75
2022-07-26T19:43:15.000Z,20.80
2022-07-26T19:45:44.609Z,20.81
2022-07-26T19:48:14.658Z,20.72
2022-07-26T19:50:45.542Z,20.79
2022-07-26T19:53:15.311Z,20.70
2022-07-26T19:55:44.861Z,20.63
2022-07-26T19:58:14.356Z,20.52
2022-07-26T20:00:44.067Z,20.39
2022-07-26T20:03:13.988Z,20.36
2022-07-26T20:05:45.404Z,20.23
2022-07-26T20:08:15.149Z,20.26
2022-07-26T20:10:44.700Z,20.21
2022-07-26T20:13:13.937Z,20.13
2022-07-26T20:15:43.622Z,20.06
2022-07-26T20:18:12.820Z,19.96
2022-07-26T20:20:44.487Z,19.82
2022-07-26T20:23:13.808Z,19.94
2022-07-26T20:25:42.989Z,19.87
2022-07-26T20:28:12.326Z,19.79
2022-07-26T20:30:41.636Z,19.73
2022-07-26T20:33:11.302Z,19.72
2022-07-26T20:35:40.788Z,19.64
2022-07-26T20:38:11.603Z,19.72
2022-07-26T20:40:41.563Z,19.64
2022-07-26T20:43:11.942Z,19.73
2022-07-26T20:45:43.630Z,19.76
2022-07-26T20:48:13.027Z,19.72
2022-07-26T20:50:42.436Z,19.71
2022-07-26T20:53:13.139Z,19.70
2022-07-26T20:55:42.641Z,19.56
2022-07-26T20:58:12.165Z,19.75
2022-07-26T21:00:43.580Z,19.75
2022-07-26T21:03:13.912Z,19.62
2022-07-26T21:05:43.783Z,19.79
2022-07-26T21:08:16.983Z,19.82
2022-07-26T21:10:47.643Z,19.78
2022-07-26T21:13:16.914Z,19.87
2022-07-26T21:15:46.155Z,19.96
2022-07-26T21:18:15.600Z,19.99
2022-07-26T21:20:46.435Z,19.97
2022-07-26T21:23:18.377Z,19.93
2022-07-26T21:25:48.050Z,19.93
2022-07-26T21:28:18.040Z,19.82
2022-07-26T21:30:47.699Z,19.88
2022-07-26T21:33:17.162Z,19.88
2022-07-26T21:35:46.770Z,19.91
2022-07-26T21:38:17.520Z,19.93
2022-07-26T21:40:47.706Z,19.94
2022-07-26T21:43:19.699Z,19.93
2022-07-26T21:45:49.124Z,19.95
2022-07-26T21:48:18.439Z,19.93
2022-07-26T21:50:47.750Z,19.92
2022-07-26T21:53:18.609Z,19.91
2022-07-26T21:55:47.924Z,19.90
2022-07-26T21:58:17.318Z,19.88
2022-07-26T22:00:46.647Z,19.85
2022-07-26T22:03:15.949Z,19.84
2022-07-26T22:05:46.946Z,19.82
2022-07-26T22:08:19.563Z,19.76
2022-07-26T22:10:49.653Z,19.69
2022-07-26T22:13:19.223Z,19.69
2022-07-26T22:15:49.033Z,19.66
2022-07-26T22:18:20.324Z,19.58
2022-07-26T22:20:50.420Z,19.62
2022-07-26T22:23:23.067Z,19.55
2022-07-26T22:25:52.065Z,19.54
2022-07-26T22:28:21.301Z,19.56
2022-07-26T22:30:50.628Z,19.49
2022-07-26T22:33:19.858Z,19.59
2022-07-26T22:35:50.079Z,19.48
2022-07-26T22:38:20.891Z,19.54
2022-07-26T22:40:50.370Z,19.37
2022-07-26T22:43:19.644Z,19.51
2022-07-26T22:45:49.076Z,19.41
2022-07-26T22:48:18.453Z,19.35
2022-07-26T22:50:47.601Z,19.18
2022-07-26T22:53:16.891Z,19.25
2022-07-26T22:55:47.453Z,19.14
2022-07-26T22:58:16.657Z,19.08
2022-07-26T23:00:45.996Z,19.06
2022-07-26T23:03:19.531Z,19.05
2022-07-26T23:05:52.277Z,18.99
2022-07-26T23:08:47.086Z,18.95
2022-07-26T23:11:12.522Z,18.90
2022-07-26T23:13:41.893Z,18.80
2022-07-26T23:16:11.129Z,18.86
2022-07-26T23:18:40.376Z,18.81
2022-07-26T23:21:09.582Z,18.79
2022-07-26T23:23:39.000Z,18.73
2022-07-26T23:26:08.339Z,18.64
2022-07-26T23:28:38.941Z,18.63
2022-07-26T23:31:10.930Z,18.57
2022-07-26T23:33:51.358Z,18.53
2022-07-26T23:36:28.437Z,18.46
2022-07-26T23:38:59.912Z,18.39
2022-07-26T23:41:30.033Z,18.32
2022-07-26T23:44:00.668Z,18.30
2022-07-26T23:46:30.164Z,18.28
2022-07-26T23:49:00.243Z,18.25
2022-07-26T23:51:29.523Z,18.14
2022-07-26T23:53:59.179Z,18.07
2022-07-26T23:56:28.496Z,18.05
2022-07-26T23:58:59.184Z,17.91
